createdAt,value
2018-09-18T00:00:50.130Z,10.50
2018-09-18T00:03:19.690Z,11.57
2018-09-18T00:05:50.172Z,11.37
2018-09-18T00:08:25.450Z,11.80
2018-09-18T00:10:56.038Z,11.33
2018-09-18T00:13:28.050Z,11.87
2018-09-18T00:15:58.546Z,11.97
2018-09-18T00:18:28.158Z,12.13
2018-09-18T00:21:05.655Z,13.70
2018-09-18T00:23:37.546Z,14.50
2018-09-18T00:26:12.802Z,13.50
2018-09-18T00:28:43.647Z,12.87
2018-09-18T00:31:13.363Z,14.57
2018-09-18T00:33:47.967Z,13.20
2018-09-18T00:36:19.803Z,14.00
2018-09-18T00:38:50.482Z,14.83
2018-09-18T00:41:21.930Z,15.73
2018-09-18T00:43:55.650Z,15.37
2018-09-18T00:46:25.539Z,15.60
2018-09-18T00:48:55.086Z,15.63
2018-09-18T00:51:25.627Z,14.77
2018-09-18T00:53:55.198Z,15.37
2018-09-18T00:56:24.722Z,17.47
2018-09-18T00:58:56.250Z,16.40
2018-09-18T01:01:27.082Z,14.40
2018-09-18T01:03:56.856Z,16.00
2018-09-18T01:06:27.494Z,15.10
2018-09-18T01:09:00.221Z,14.37
2018-09-18T01:11:35.198Z,15.23
2018-09-18T01:14:04.766Z,15.53
2018-09-18T01:16:35.882Z,13.87
2018-09-18T01:19:05.786Z,14.47
2018-09-18T01:21:37.414Z,14.80
2018-09-18T01:24:07.890Z,14.43
2018-09-18T01:26:43.156Z,14.33
2018-09-18T01:29:13.914Z,15.43
2018-09-18T01:31:45.550Z,15.70
2018-09-18T01:34:19.014Z,17.40
2018-09-18T01:37:04.622Z,15.50
2018-09-18T01:39:39.741Z,15.30
2018-09-18T01:42:23.742Z,15.30
2018-09-18T01:48:16.684Z,16.57
2018-09-18T01:51:00.714Z,15.60
2018-09-18T01:53:31.290Z,14.87
2018-09-18T01:56:02.922Z,14.60
2018-09-18T01:58:34.666Z,16.40
2018-09-18T02:01:09.646Z,16.17
2018-09-18T02:03:39.443Z,14.93
2018-09-18T02:06:09.094Z,16.27
2018-09-18T02:08:38.846Z,17.03
2018-09-18T02:11:10.634Z,15.90
2018-09-18T02:13:40.186Z,16.30
2018-09-18T02:16:09.814Z,17.23
2018-09-18T02:18:42.986Z,16.63
2018-09-18T02:21:12.666Z,18.23
2018-09-18T02:23:44.370Z,17.87
2018-09-18T02:26:16.542Z,15.50
2018-09-18T02:28:51.033Z,17.47
2018-09-18T02:31:21.558Z,16.73
2018-09-18T02:33:54.783Z,17.30
2018-09-18T02:36:27.662Z,17.50
2018-09-18T02:39:00.293Z,16.60
2018-09-18T02:41:33.831Z,16.40
2018-09-18T02:44:04.474Z,17.70
2018-09-18T02:46:35.034Z,18.37
2018-09-18T02:49:05.681Z,18.00
2018-09-18T02:51:36.234Z,17.27
2018-09-18T02:54:06.808Z,17.50
2018-09-18T02:56:42.070Z,18.87
2018-09-18T02:59:16.418Z,18.23
2018-09-18T03:01:48.015Z,18.03
2018-09-18T03:04:19.518Z,19.90
2018-09-18T03:06:52.838Z,19.53
2018-09-18T03:09:22.682Z,19.83
2018-09-18T03:12:01.786Z,19.70
2018-09-18T03:14:37.486Z,17.83
2018-09-18T03:17:10.031Z,18.60
2018-09-18T03:19:43.697Z,18.07
2018-09-18T03:22:14.255Z,18.10
2018-09-18T03:24:45.778Z,16.50
2018-09-18T03:27:15.391Z,19.50
2018-09-18T03:29:48.351Z,16.57
2018-09-18T03:32:28.855Z,17.43
2018-09-18T03:34:58.879Z,17.27
2018-09-18T03:37:28.558Z,17.10
2018-09-18T03:39:58.279Z,17.13
2018-09-18T03:42:39.058Z,18.70
2018-09-18T03:45:09.659Z,16.90
2018-09-18T03:47:45.824Z,16.60
2018-09-18T03:50:15.317Z,17.63
2018-09-18T03:52:44.874Z,16.57
2018-09-18T03:55:16.426Z,16.80
2018-09-18T03:57:46.211Z,17.67
2018-09-18T04:00:15.850Z,18.33
2018-09-18T04:02:49.591Z,18.77
2018-09-18T04:05:25.119Z,17.37
2018-09-18T04:07:55.694Z,18.30
2018-09-18T04:10:25.266Z,19.07
2018-09-18T04:12:56.843Z,17.50
2018-09-18T04:15:30.854Z,20.30
2018-09-18T04:18:16.923Z,19.17
2018-09-18T04:20:47.574Z,19.93
2018-09-18T04:23:18.078Z,18.10
2018-09-18T04:25:53.726Z,19.57
2018-09-18T04:28:23.232Z,18.50
2018-09-18T04:30:52.786Z,19.30
2018-09-18T04:33:32.670Z,20.07
2018-09-18T04:36:10.386Z,19.67
2018-09-18T04:38:40.470Z,19.43
2018-09-18T04:41:15.234Z,19.90
2018-09-18T04:43:46.138Z,19.80
2018-09-18T04:46:16.026Z,20.70
2018-09-18T04:48:46.902Z,20.43
2018-09-18T04:51:28.331Z,21.27
2018-09-18T04:53:57.954Z,20.00
2018-09-18T04:56:28.732Z,19.80
2018-09-18T04:58:58.529Z,20.83
2018-09-18T05:01:30.759Z,19.60
2018-09-18T05:04:03.747Z,21.43
2018-09-18T05:06:34.434Z,20.87
2018-09-18T05:09:06.067Z,19.50
2018-09-18T05:11:35.739Z,20.27
2018-09-18T05:14:05.476Z,21.10
2018-09-18T05:16:35.994Z,18.63
2018-09-18T05:19:18.550Z,21.67
2018-09-18T05:21:49.326Z,20.60
2018-09-18T05:24:21.498Z,22.57
2018-09-18T05:26:51.370Z,20.97
2018-09-18T05:29:26.111Z,19.73
2018-09-18T05:31:56.706Z,21.13
2018-09-18T05:34:28.526Z,20.93
2018-09-18T05:36:58.464Z,21.03
2018-09-18T05:39:38.110Z,21.87
2018-09-18T05:42:09.603Z,22.50
2018-09-18T05:44:45.047Z,21.57
2018-09-18T05:47:14.994Z,22.80
2018-09-18T05:49:46.742Z,24.73
2018-09-18T05:52:17.330Z,24.17
2018-09-18T05:54:47.110Z,25.93
2018-09-18T05:57:16.746Z,25.83
2018-09-18T05:59:46.478Z,26.53
2018-09-18T06:02:16.106Z,24.63
2018-09-18T06:04:45.616Z,26.03
2018-09-18T06:07:20.814Z,25.27
2018-09-18T06:09:51.374Z,27.20
2018-09-18T06:12:22.141Z,26.73
2018-09-18T06:14:51.710Z,27.50
2018-09-18T06:17:21.502Z,26.87
2018-09-18T06:19:51.299Z,27.93
2018-09-18T06:22:21.170Z,27.33
2018-09-18T06:24:50.797Z,28.07
2018-09-18T06:27:21.594Z,27.60
2018-09-18T06:29:53.202Z,28.10
2018-09-18T06:32:26.625Z,26.63
2018-09-18T06:35:01.965Z,25.47
2018-09-18T06:37:35.794Z,23.77
2018-09-18T06:40:10.229Z,23.17
2018-09-18T06:42:40.146Z,19.27
2018-09-18T06:45:09.818Z,18.20
2018-09-18T06:47:39.391Z,17.20
2018-09-18T06:50:09.149Z,16.50
2018-09-18T06:52:39.049Z,18.73
2018-09-18T06:55:08.641Z,17.13
2018-09-18T06:57:43.394Z,16.10
2018-09-18T07:00:14.965Z,17.50
2018-09-18T07:02:46.690Z,16.23
2018-09-18T07:05:16.299Z,16.83
2018-09-18T07:07:45.809Z,16.80
2018-09-18T07:10:15.538Z,16.63
2018-09-18T07:12:45.469Z,16.00
2018-09-18T07:15:17.278Z,17.97
2018-09-18T07:17:51.780Z,16.97
2018-09-18T07:20:21.674Z,17.80
2018-09-18T07:22:53.333Z,16.17
2018-09-18T07:25:23.085Z,16.07
2018-09-18T07:27:54.930Z,17.70
2018-09-18T07:30:30.198Z,17.80
2018-09-18T07:33:01.842Z,17.60
2018-09-18T07:35:35.058Z,16.10
2018-09-18T07:38:04.826Z,16.20
2018-09-18T07:40:34.345Z,17.70
2018-09-18T07:43:05.904Z,16.13
2018-09-18T07:45:35.714Z,16.97
2018-09-18T07:48:06.654Z,16.10
2018-09-18T07:50:37.512Z,16.07
2018-09-18T07:53:12.127Z,17.90
2018-09-18T07:55:47.038Z,15.20
2018-09-18T07:58:16.660Z,15.47
2018-09-18T08:00:46.122Z,14.30
2018-09-18T08:03:15.810Z,13.77
2018-09-18T08:05:50.591Z,12.83
2018-09-18T08:08:20.194Z,13.20
2018-09-18T08:10:52.780Z,12.13
2018-09-18T08:13:23.447Z,12.40
2018-09-18T08:15:55.347Z,12.77
2018-09-18T08:18:29.567Z,11.73
2018-09-18T08:21:04.219Z,11.40
2018-09-18T08:23:33.839Z,11.07
2018-09-18T08:26:03.395Z,11.17
2018-09-18T08:28:36.730Z,11.03
2018-09-18T08:31:06.618Z,11.17
2018-09-18T08:33:36.467Z,10.73
2018-09-18T08:36:07.412Z,10.90
2018-09-18T08:38:41.626Z,11.73
2018-09-18T08:41:11.439Z,10.27
2018-09-18T08:43:45.642Z,10.33
2018-09-18T08:46:16.227Z,11.10
2018-09-18T08:48:55.986Z,10.73
2018-09-18T08:51:29.370Z,10.20
2018-09-18T08:53:59.130Z,10.50
2018-09-18T08:56:28.745Z,9.70
2018-09-18T08:58:58.311Z,9.53
2018-09-18T09:01:28.106Z,9.50
2018-09-18T09:03:59.039Z,9.97
2018-09-18T09:06:34.332Z,8.33
2018-09-18T09:09:11.230Z,8.63
2018-09-18T09:11:42.301Z,8.83
2018-09-18T09:14:16.389Z,8.90
2018-09-18T09:16:50.366Z,9.17
2018-09-18T09:19:26.879Z,7.90
2018-09-18T09:21:57.753Z,8.67
2018-09-18T09:24:28.222Z,7.83
2018-09-18T09:27:02.237Z,8.53
2018-09-18T09:29:31.990Z,8.03
2018-09-18T09:32:02.612Z,8.23
2018-09-18T09:34:36.675Z,7.27
2018-09-18T09:37:06.611Z,7.27
2018-09-18T09:39:37.391Z,6.77
2018-09-18T09:42:07.474Z,7.57
2018-09-18T09:44:38.362Z,6.90
2018-09-18T09:47:08.010Z,6.50
2018-09-18T09:49:38.558Z,6.83
2018-09-18T09:52:11.971Z,7.00
2018-09-18T09:54:43.606Z,6.83
2018-09-18T09:57:13.127Z,6.20
2018-09-18T09:59:48.333Z,6.03
2018-09-18T10:02:23.150Z,6.27
2018-09-18T10:05:00.714Z,7.60
2018-09-18T10:07:39.814Z,7.33
2018-09-18T10:10:10.362Z,5.97
2018-09-18T10:12:52.114Z,5.90
2018-09-18T10:15:26.862Z,5.80
2018-09-18T10:17:57.513Z,5.00
2018-09-18T10:20:28.135Z,5.03
2018-09-18T10:22:57.766Z,5.03
2018-09-18T10:25:27.529Z,5.50
2018-09-18T10:28:02.810Z,6.00
2018-09-18T10:30:37.878Z,5.13
2018-09-18T10:33:08.487Z,5.53
2018-09-18T10:35:40.243Z,4.13
2018-09-18T10:38:15.965Z,5.33
2018-09-18T10:40:46.707Z,5.77
2018-09-18T10:43:16.580Z,4.90
2018-09-18T10:45:46.143Z,4.50
2018-09-18T10:48:16.649Z,4.50
2018-09-18T10:50:58.194Z,4.40
2018-09-18T10:53:44.266Z,4.37
2018-09-18T10:56:16.066Z,4.70
2018-09-18T10:58:45.996Z,4.10
2018-09-18T11:01:17.934Z,5.10
2018-09-18T11:03:51.145Z,4.60
2018-09-18T11:06:20.964Z,4.47
2018-09-18T11:08:50.804Z,4.27
2018-09-18T11:11:21.717Z,4.30
2018-09-18T11:14:06.254Z,4.03
2018-09-18T11:16:36.095Z,4.10
2018-09-18T11:19:08.444Z,4.27
2018-09-18T11:21:40.583Z,3.87
2018-09-18T11:24:15.570Z,4.80
2018-09-18T11:26:45.327Z,4.20
2018-09-18T11:29:18.458Z,3.57
2018-09-18T11:31:49.319Z,3.27
2018-09-18T11:34:20.962Z,3.40
2018-09-18T11:37:13.778Z,3.27
2018-09-18T11:39:49.934Z,3.20
2018-09-18T11:42:19.750Z,3.70
2018-09-18T11:44:49.590Z,2.70
2018-09-18T11:47:25.142Z,3.40
2018-09-18T11:49:54.941Z,2.90
2018-09-18T11:52:28.044Z,3.80
2018-09-18T11:54:59.866Z,3.70
2018-09-18T11:57:45.438Z,3.13
2018-09-18T12:00:27.682Z,3.90
2018-09-18T12:02:58.317Z,3.60
2018-09-18T12:05:32.699Z,3.43
2018-09-18T12:08:02.590Z,2.83
2018-09-18T12:10:38.885Z,3.83
2018-09-18T12:13:09.754Z,3.40
2018-09-18T12:15:44.966Z,2.80
2018-09-18T12:18:25.698Z,3.10
2018-09-18T12:21:07.378Z,2.70
2018-09-18T12:23:43.122Z,2.57
2018-09-18T12:26:12.926Z,2.80
2018-09-18T12:28:46.077Z,2.93
2018-09-18T12:31:16.738Z,3.00
2018-09-18T12:33:53.310Z,2.70
2018-09-18T12:36:23.210Z,2.67
2018-09-18T12:38:55.858Z,3.57
2018-09-18T12:41:26.767Z,3.60
2018-09-18T12:44:08.578Z,3.40
2018-09-18T12:46:48.337Z,2.80
2018-09-18T12:49:18.019Z,2.73
2018-09-18T12:51:48.770Z,3.03
2018-09-18T12:54:19.386Z,3.00
2018-09-18T12:56:49.246Z,2.73
2018-09-18T12:59:29.110Z,3.50
2018-09-18T13:02:15.212Z,2.90
2018-09-18T13:04:50.381Z,3.43
2018-09-18T13:07:19.885Z,4.30
2018-09-18T13:09:50.674Z,3.00
2018-09-18T13:12:20.512Z,2.90
2018-09-18T13:14:51.262Z,3.27
2018-09-18T13:17:22.078Z,3.03
2018-09-18T13:19:52.789Z,3.57
2018-09-18T13:22:22.425Z,2.70
2018-09-18T13:24:53.066Z,2.83
2018-09-18T13:27:32.934Z,3.30
2018-09-18T13:30:03.390Z,2.90
2018-09-18T13:32:40.734Z,2.50
2018-09-18T13:35:16.966Z,2.90
2018-09-18T13:40:41.585Z,2.50
2018-09-18T13:43:17.638Z,3.30
2018-09-18T13:45:47.085Z,2.40
2018-09-18T13:48:16.518Z,2.50
2018-09-18T13:50:49.752Z,2.53
2018-09-18T13:53:20.284Z,2.60
2018-09-18T13:56:08.015Z,2.83
2018-09-18T13:58:38.451Z,3.00
2018-09-18T14:01:15.172Z,2.77
2018-09-18T14:03:50.738Z,2.73
2018-09-18T14:06:27.723Z,2.80
2018-09-18T14:09:05.553Z,3.20
2018-09-18T14:11:44.726Z,2.40
2018-09-18T14:14:14.636Z,3.10
2018-09-18T14:16:50.882Z,2.57
2018-09-18T14:19:20.566Z,2.57
2018-09-18T14:22:00.458Z,3.53
2018-09-18T14:24:48.222Z,2.43
2018-09-18T14:27:22.780Z,2.63
2018-09-18T14:29:52.251Z,2.50
2018-09-18T14:32:31.925Z,2.50
2018-09-18T14:35:16.370Z,3.00
2018-09-18T14:37:53.684Z,2.70
2018-09-18T14:40:23.425Z,3.27
2018-09-18T14:43:16.140Z,2.60
2018-09-18T14:45:51.551Z,2.40
2018-09-18T14:48:27.185Z,3.17
2018-09-18T14:50:56.968Z,2.70
2018-09-18T14:53:30.138Z,3.53
2018-09-18T14:56:12.041Z,3.10
2018-09-18T14:58:43.857Z,2.80
2018-09-18T15:01:18.005Z,3.23
2018-09-18T15:03:52.972Z,3.00
2018-09-18T15:06:38.725Z,2.43
2018-09-18T15:09:13.929Z,3.07
2018-09-18T15:12:04.101Z,2.67
2018-09-18T15:14:37.791Z,2.93
2018-09-18T15:17:10.253Z,3.30
2018-09-18T15:19:57.930Z,3.10
2018-09-18T15:22:42.078Z,3.57
2018-09-18T15:25:12.838Z,3.27
2018-09-18T15:27:43.566Z,3.37
2018-09-18T15:30:13.349Z,3.10
2018-09-18T15:32:53.338Z,2.53
2018-09-18T15:38:17.858Z,3.10
2018-09-18T15:40:47.730Z,2.90
2018-09-18T15:43:18.566Z,3.83
2018-09-18T15:45:49.299Z,3.33
2018-09-18T15:48:18.989Z,3.47
2018-09-18T15:50:53.580Z,3.50
2018-09-18T15:53:24.240Z,4.00
2018-09-18T15:55:53.669Z,3.80
2018-09-18T15:58:36.371Z,3.93
2018-09-18T16:01:11.198Z,3.70
2018-09-18T16:03:47.360Z,3.50
2018-09-18T16:06:17.174Z,3.87
2018-09-18T16:08:47.937Z,4.20
2018-09-18T16:11:17.458Z,3.73
2018-09-18T16:13:54.361Z,3.57
2018-09-18T16:16:25.882Z,4.73
2018-09-18T16:18:55.326Z,3.87
2018-09-18T16:21:25.861Z,3.67
2018-09-18T16:23:55.362Z,4.70
2018-09-18T16:26:24.873Z,4.17
2018-09-18T16:28:54.345Z,3.93
2018-09-18T16:31:24.015Z,4.30
2018-09-18T16:33:53.607Z,3.97
2018-09-18T16:36:27.221Z,3.70
2018-09-18T16:38:58.673Z,4.30
2018-09-18T16:41:31.845Z,4.40
2018-09-18T16:44:05.581Z,3.67
2018-09-18T16:46:36.322Z,4.00
2018-09-18T16:49:06.897Z,4.67
2018-09-18T16:51:36.791Z,5.03
2018-09-18T16:54:08.375Z,4.33
2018-09-18T16:56:44.045Z,3.90
2018-09-18T16:59:18.452Z,4.20
2018-09-18T17:01:48.261Z,4.60
2018-09-18T17:04:17.853Z,4.50
2018-09-18T17:06:58.330Z,4.77
2018-09-18T17:09:28.797Z,4.73
2018-09-18T17:11:59.324Z,4.90
2018-09-18T17:14:28.802Z,4.90
2018-09-18T17:17:04.074Z,4.00
2018-09-18T17:19:35.741Z,4.23
2018-09-18T17:22:09.105Z,4.70
2018-09-18T17:24:39.660Z,5.53
2018-09-18T17:27:12.909Z,4.87
2018-09-18T17:29:48.013Z,5.33
2018-09-18T17:32:17.561Z,4.60
2018-09-18T17:34:50.317Z,4.57
2018-09-18T17:37:21.897Z,4.67
2018-09-18T17:39:52.476Z,5.00
2018-09-18T17:42:22.983Z,4.60
2018-09-18T17:44:57.371Z,4.27
2018-09-18T17:47:31.962Z,5.00
2018-09-18T17:50:01.888Z,4.40
2018-09-18T17:52:37.430Z,6.10
2018-09-18T17:55:07.633Z,5.47
2018-09-18T17:57:48.799Z,4.70
2018-09-18T18:00:18.534Z,4.83
2018-09-18T18:02:48.095Z,5.47
2018-09-18T18:05:17.581Z,5.50
2018-09-18T18:07:47.061Z,5.50
2018-09-18T18:10:16.924Z,5.23
2018-09-18T18:12:46.789Z,5.00
2018-09-18T18:15:17.435Z,5.80
2018-09-18T18:17:48.158Z,4.63
2018-09-18T18:20:19.845Z,5.67
2018-09-18T18:22:50.337Z,5.10
2018-09-18T18:25:19.842Z,5.57
2018-09-18T18:27:57.101Z,5.47
2018-09-18T18:30:27.873Z,5.60
2018-09-18T18:32:57.533Z,5.40
2018-09-18T18:35:32.552Z,6.10
2018-09-18T18:38:16.629Z,5.40
2018-09-18T18:40:58.591Z,5.23
2018-09-18T18:43:31.613Z,4.90
2018-09-18T18:46:01.769Z,6.30
2018-09-18T18:48:35.267Z,5.60
2018-09-18T18:51:06.373Z,5.73
2018-09-18T18:53:38.049Z,5.33
2018-09-18T18:56:08.600Z,6.30
2018-09-18T18:58:38.118Z,5.27
2018-09-18T19:01:08.653Z,6.60
2018-09-18T19:03:44.648Z,5.03
2018-09-18T19:06:18.288Z,5.13
2018-09-18T19:08:56.106Z,6.20
2018-09-18T19:11:30.708Z,5.90
2018-09-18T19:14:03.997Z,4.90
2018-09-18T19:16:38.975Z,5.63
2018-09-18T19:19:09.525Z,5.63
2018-09-18T19:21:47.284Z,5.30
2018-09-18T19:24:18.134Z,6.37
2018-09-18T19:26:48.872Z,5.93
2018-09-18T19:29:23.237Z,6.40
2018-09-18T19:31:52.758Z,6.17
2018-09-18T19:34:26.305Z,6.20
2018-09-18T19:36:57.183Z,6.20
2018-09-18T19:39:27.389Z,5.50
2018-09-18T19:41:57.010Z,6.20
2018-09-18T19:44:32.830Z,5.87
2018-09-18T19:47:03.682Z,7.87
2018-09-18T19:49:39.851Z,5.90
2018-09-18T19:52:11.621Z,5.70
2018-09-18T19:54:50.753Z,6.50
2018-09-18T19:57:20.278Z,6.40
2018-09-18T19:59:50.090Z,5.80
2018-09-18T20:02:19.810Z,6.10
2018-09-18T20:04:51.321Z,6.53
2018-09-18T20:07:20.834Z,6.50
2018-09-18T20:09:51.446Z,5.90
2018-09-18T20:12:23.010Z,6.17
2018-09-18T20:14:52.808Z,6.63
2018-09-18T20:17:29.967Z,7.10
2018-09-18T20:20:03.365Z,6.83
2018-09-18T20:22:33.039Z,7.07
2018-09-18T20:25:03.549Z,7.03
2018-09-18T20:27:43.502Z,7.37
2018-09-18T20:30:17.015Z,7.90
2018-09-18T20:32:54.847Z,7.80
2018-09-18T20:35:30.037Z,7.43
2018-09-18T20:38:11.953Z,5.43
2018-09-18T20:40:43.844Z,7.80
2018-09-18T20:43:14.434Z,7.60
2018-09-18T20:45:53.913Z,8.43
2018-09-18T20:48:30.683Z,7.30
2018-09-18T20:51:00.945Z,7.43
2018-09-18T20:53:31.361Z,7.13
2018-09-18T20:56:01.174Z,7.50
2018-09-18T20:58:35.763Z,6.20
2018-09-18T21:01:11.109Z,6.70
2018-09-18T21:03:48.491Z,7.10
2018-09-18T21:06:18.244Z,5.80
2018-09-18T21:08:47.989Z,7.30
2018-09-18T21:11:21.700Z,6.23
2018-09-18T21:13:53.569Z,7.60
2018-09-18T21:16:24.418Z,7.97
2018-09-18T21:18:56.041Z,7.13
2018-09-18T21:21:26.527Z,8.43
2018-09-18T21:23:56.270Z,6.70
2018-09-18T21:26:25.854Z,7.00
2018-09-18T21:28:55.362Z,7.17
2018-09-18T21:31:28.273Z,6.50
2018-09-18T21:33:58.881Z,7.90
2018-09-18T21:36:30.473Z,7.47
2018-09-18T21:39:03.745Z,6.87
2018-09-18T21:41:33.343Z,7.30
2018-09-18T21:44:02.854Z,7.07
2018-09-18T21:46:34.425Z,7.20
2018-09-18T21:49:03.888Z,7.27
2018-09-18T21:51:38.537Z,6.60
2018-09-18T21:54:08.033Z,7.50
2018-09-18T21:56:41.236Z,7.47
2018-09-18T21:59:11.748Z,7.70
2018-09-18T22:01:42.489Z,8.20
2018-09-18T22:04:14.138Z,8.03
2018-09-18T22:06:43.669Z,7.13
2018-09-18T22:09:13.244Z,8.20
2018-09-18T22:11:44.018Z,8.53
2018-09-18T22:14:15.639Z,7.80
2018-09-18T22:16:46.205Z,7.00
2018-09-18T22:19:16.821Z,7.40
2018-09-18T22:21:46.419Z,8.20
2018-09-18T22:24:30.536Z,8.33
2018-09-18T22:27:04.166Z,6.73
2018-09-18T22:29:33.741Z,8.00
2018-09-18T22:32:03.282Z,7.90
2018-09-18T22:34:34.249Z,9.60
2018-09-18T22:37:04.736Z,8.80
2018-09-18T22:39:37.392Z,7.70
2018-09-18T22:42:12.639Z,8.70
2018-09-18T22:44:45.953Z,8.73
2018-09-18T22:47:16.506Z,8.40
2018-09-18T22:49:48.432Z,7.17
2018-09-18T22:52:19.084Z,8.30
2018-09-18T22:54:48.888Z,7.80
2018-09-18T22:57:19.439Z,9.40
2018-09-18T22:59:48.970Z,8.07
2018-09-18T23:02:18.501Z,9.07
2018-09-18T23:04:59.925Z,7.80
2018-09-18T23:07:35.284Z,7.97
2018-09-18T23:10:08.058Z,8.30
2018-09-18T23:12:42.252Z,8.13
2018-09-18T23:15:11.764Z,7.90
2018-09-18T23:17:42.212Z,9.80
2018-09-18T23:20:17.704Z,8.53
2018-09-18T23:22:47.471Z,9.47
2018-09-18T23:25:18.369Z,9.00
2018-09-18T23:27:48.192Z,8.93
2018-09-18T23:30:18.816Z,9.37
2018-09-18T23:32:49.567Z,9.80
2018-09-18T23:35:19.184Z,10.10
2018-09-18T23:37:49.104Z,9.80
2018-09-18T23:40:19.584Z,9.67
2018-09-18T23:42:51.161Z,9.20
2018-09-18T23:45:21.657Z,8.23
2018-09-18T23:47:52.233Z,9.20
2018-09-18T23:50:23.746Z,8.83
2018-09-18T23:52:53.605Z,8.60
2018-09-18T23:55:30.582Z,7.90
2018-09-18T23:58:02.409Z,7.70
